Time;durP1;ratioP1;P1;durP2;ratioP2;P2;SDS_P1;SDS_P2;PMS_P1;PMS_P2;Temp;Humidity;BMP_temperature;BMP_pressure;BME280_temperature;BME280_humidity;BME280_pressure;Samples;Min_cycle;Max_cycle;Signal;HPM_P1;HPM_P2
2023/07/11 00:00:25;;;;;;;2.72;1.60;;;17.10;99.90;;;;;;4978717;28;20184;-88
2023/07/11 00:02:51;;;;;;;3.17;1.40;;;17.00;99.90;;;;;;4977202;28;20177;-88
2023/07/11 00:05:18;;;;;;;3.08;1.50;;;16.90;99.90;;;;;;4978786;28;20213;-89
2023/07/11 00:07:45;;;;;;;3.35;1.88;;;16.80;99.90;;;;;;4977636;28;20219;-90
2023/07/11 00:10:14;;;;;;;3.50;1.67;;;16.70;99.90;;;;;;4977718;28;20180;-88
2023/07/11 00:12:40;;;;;;;3.25;1.67;;;16.70;99.90;;;;;;4966383;28;20229;-88
2023/07/11 00:15:10;;;;;;;4.95;1.80;;;16.70;99.90;;;;;;4957975;29;20177;-88
2023/07/11 00:17:36;;;;;;;4.32;1.67;;;16.70;99.90;;;;;;4959299;28;20232;-88
2023/07/11 00:20:04;;;;;;;4.85;2.08;;;16.70;99.90;;;;;;4957868;29;20213;-88
2023/07/11 00:22:31;;;;;;;3.65;1.60;;;16.70;99.90;;;;;;4957684;29;20181;-88
2023/07/11 00:25:00;;;;;;;4.72;1.70;;;16.60;99.90;;;;;;4957913;29;20224;-89
2023/07/11 00:27:26;;;;;;;3.05;1.73;;;16.50;99.90;;;;;;4959093;29;20172;-88
2023/07/11 00:29:52;;;;;;;3.33;1.83;;;16.50;99.90;;;;;;4957678;29;20181;-88
2023/07/11 00:32:18;;;;;;;3.97;1.63;;;16.50;99.90;;;;;;4957685;29;20655;-88
2023/07/11 00:34:44;;;;;;;4.45;1.90;;;16.50;99.90;;;;;;4957476;29;20280;-88
2023/07/11 00:37:10;;;;;;;2.63;1.67;;;16.50;99.90;;;;;;4957673;29;20515;-89
2023/07/11 00:39:37;;;;;;;3.45;1.70;;;16.40;99.90;;;;;;4957776;29;20185;-88
2023/07/11 00:42:08;;;;;;;5.80;1.77;;;16.40;99.90;;;;;;4963061;28;20191;-88
2023/07/11 00:44:57;;;;;;;3.58;1.65;;;16.50;99.90;;;;;;4992778;28;20204;-88
2023/07/11 00:47:25;;;;;;;4.80;1.60;;;16.50;99.90;;;;;;4992692;28;20215;-87
2023/07/11 00:50:06;;;;;;;4.35;2.00;;;16.40;99.90;;;;;;4977948;28;20625;-87
2023/07/11 00:52:35;;;;;;;3.47;1.60;;;16.40;99.90;;;;;;4977927;28;20251;-88
2023/07/11 00:55:08;;;;;;;4.43;1.70;;;16.40;99.90;;;;;;4992701;28;20188;-88
2023/07/11 00:57:37;;;;;;;3.58;2.22;;;16.40;99.90;;;;;;4992526;28;20168;-88
2023/07/11 01:00:04;;;;;;;3.45;1.85;;;16.40;99.90;;;;;;4976677;28;20542;-88
2023/07/11 01:02:32;;;;;;;4.00;1.67;;;16.40;99.90;;;;;;4992394;28;20263;-87
2023/07/11 01:05:03;;;;;;;5.05;2.00;;;16.40;99.90;;;;;;4992050;28;20231;-88
2023/07/11 01:07:35;;;;;;;6.05;1.92;;;16.40;99.90;;;;;;4992894;28;20180;-88
2023/07/11 01:10:01;;;;;;;6.22;2.20;;;16.40;99.90;;;;;;4992954;28;20168;-88
2023/07/11 01:12:27;;;;;;;5.25;2.10;;;16.40;99.90;;;;;;4991859;28;20354;-89
2023/07/11 01:14:53;;;;;;;5.65;1.80;;;16.30;99.90;;;;;;4992562;28;20611;-89
2023/07/11 01:17:19;;;;;;;5.28;2.65;;;16.30;99.90;;;;;;4992699;28;20184;-88
2023/07/11 01:19:45;;;;;;;5.22;2.05;;;16.40;99.90;;;;;;4992590;28;20202;-89
2023/07/11 01:22:11;;;;;;;4.13;2.13;;;16.20;99.90;;;;;;4992080;28;20192;-88
2023/07/11 01:24:37;;;;;;;6.00;2.10;;;16.10;99.90;;;;;;4992332;28;20589;-88
2023/07/11 01:27:04;;;;;;;2.45;1.98;;;16.10;99.90;;;;;;4977227;28;20177;-88
2023/07/11 01:29:29;;;;;;;3.72;2.17;;;16.00;99.90;;;;;;4991987;28;20173;-88
2023/07/11 01:31:55;;;;;;;8.13;2.10;;;16.00;99.90;;;;;;4992029;28;20686;-89
2023/07/11 01:34:23;;;;;;;4.03;1.70;;;16.00;99.90;;;;;;4992071;28;20185;-89
2023/07/11 01:36:49;;;;;;;6.45;1.83;;;16.00;99.90;;;;;;4992270;28;20221;-88
2023/07/11 01:39:16;;;;;;;4.72;2.20;;;15.90;99.90;;;;;;4992140;28;20184;-89
2023/07/11 01:41:42;;;;;;;5.72;2.05;;;15.90;99.90;;;;;;4975531;28;20876;-87
2023/07/11 01:44:11;;;;;;;3.00;2.00;;;15.80;99.90;;;;;;4977117;28;20173;-89
2023/07/11 01:46:37;;;;;;;4.90;2.20;;;15.80;99.90;;;;;;4992125;28;20227;-89
2023/07/11 01:49:03;;;;;;;8.43;2.05;;;15.80;99.90;;;;;;4991531;28;20526;-89
2023/07/11 01:51:30;;;;;;;3.33;1.88;;;15.80;99.90;;;;;;4991767;28;20226;-89
2023/07/11 01:53:57;;;;;;;6.80;2.55;;;15.70;99.90;;;;;;4991898;28;20674;-90
2023/07/11 01:56:23;;;;;;;6.80;2.03;;;15.70;99.90;;;;;;4991836;28;20181;-89
2023/07/11 01:58:49;;;;;;;10.90;2.22;;;15.80;99.90;;;;;;4992034;28;20611;-90
2023/07/11 02:01:14;;;;;;;5.20;1.98;;;15.70;99.90;;;;;;4991739;28;20188;-87
2023/07/11 02:03:40;;;;;;;6.57;2.30;;;15.70;99.90;;;;;;4991528;28;20267;-87
2023/07/11 02:06:06;;;;;;;5.40;2.10;;;15.70;99.90;;;;;;4991459;28;20351;-87
2023/07/11 02:08:31;;;;;;;6.88;2.25;;;15.80;99.90;;;;;;4991648;28;20169;-86
2023/07/11 02:10:57;;;;;;;6.10;2.05;;;15.80;99.90;;;;;;4990990;28;20623;-86
2023/07/11 02:13:23;;;;;;;9.00;1.95;;;15.90;99.90;;;;;;4974898;28;20228;-87
2023/07/11 02:15:50;;;;;;;9.05;2.30;;;15.90;99.90;;;;;;4991451;28;20623;-87
2023/07/11 02:18:15;;;;;;;11.10;2.30;;;15.90;99.90;;;;;;4991193;28;20200;-86
2023/07/11 02:20:44;;;;;;;8.55;2.50;;;15.80;99.90;;;;;;4975038;28;20184;-87
2023/07/11 02:23:12;;;;;;;11.13;2.40;;;15.70;99.90;;;;;;4974416;28;20211;-85
2023/07/11 02:25:39;;;;;;;16.92;3.05;;;15.70;99.90;;;;;;4990925;28;20223;-86
2023/07/11 02:28:05;;;;;;;12.45;2.38;;;15.60;99.90;;;;;;4990579;28;20662;-87
2023/07/11 02:30:32;;;;;;;12.05;2.80;;;15.60;99.90;;;;;;4975426;28;20185;-86
2023/07/11 02:32:57;;;;;;;10.73;2.67;;;15.50;99.90;;;;;;4975527;28;20181;-86
2023/07/11 02:35:25;;;;;;;4.03;2.13;;;15.60;99.90;;;;;;4975713;28;20189;-86
2023/07/11 02:37:51;;;;;;;5.93;2.03;;;15.50;99.90;;;;;;4990595;28;20592;-86
2023/07/11 02:40:18;;;;;;;7.75;1.95;;;15.60;99.90;;;;;;4990544;28;20184;-85
2023/07/11 02:42:44;;;;;;;7.07;2.10;;;15.60;99.90;;;;;;4989975;28;20185;-86
2023/07/11 02:45:12;;;;;;;7.35;2.50;;;15.50;99.90;;;;;;4975585;28;20674;-84
2023/07/11 02:47:38;;;;;;;7.53;2.28;;;15.50;99.90;;;;;;4975535;28;20165;-86
2023/07/11 02:50:05;;;;;;;5.63;2.40;;;15.50;99.90;;;;;;4975593;28;20264;-86
2023/07/11 02:52:33;;;;;;;3.20;2.03;;;15.60;99.90;;;;;;4990176;28;20578;-86
2023/07/11 02:54:59;;;;;;;4.18;2.30;;;15.60;99.90;;;;;;4990306;28;20259;-86
2023/07/11 02:57:25;;;;;;;7.13;2.10;;;15.60;99.90;;;;;;4958076;28;20184;-84
2023/07/11 02:59:51;;;;;;;4.35;1.80;;;15.60;99.90;;;;;;4973906;28;20176;-86
2023/07/11 03:02:16;;;;;;;5.18;2.10;;;15.50;99.90;;;;;;4990094;28;20204;-85
2023/07/11 03:04:44;;;;;;;7.28;2.40;;;15.50;99.90;;;;;;4975443;28;20208;-86
2023/07/11 03:07:10;;;;;;;9.68;2.25;;;15.40;99.90;;;;;;4975173;28;20181;-86
2023/07/11 03:09:37;;;;;;;5.80;2.30;;;15.40;99.90;;;;;;4975318;28;20179;-86
2023/07/11 03:12:03;;;;;;;5.75;2.15;;;15.40;99.90;;;;;;4989671;28;20240;-86
2023/07/11 03:14:29;;;;;;;7.97;2.50;;;15.40;99.90;;;;;;4989637;28;20204;-86
2023/07/11 03:16:56;;;;;;;3.00;1.95;;;15.50;99.90;;;;;;4989305;28;20212;-85
2023/07/11 03:19:22;;;;;;;3.38;1.77;;;15.50;99.90;;;;;;4990057;28;20176;-86
2023/07/11 03:21:48;;;;;;;4.80;2.03;;;15.50;99.90;;;;;;4973309;28;20525;-85
2023/07/11 03:24:15;;;;;;;12.25;2.92;;;15.60;99.90;;;;;;4975074;28;20626;-85
2023/07/11 03:26:45;;;;;;;6.60;2.40;;;15.50;99.90;;;;;;4989741;28;20651;-86
2023/07/11 03:29:10;;;;;;;5.43;2.40;;;15.50;99.90;;;;;;4992806;28;20169;-85
2023/07/11 03:31:37;;;;;;;7.45;2.40;;;15.50;99.90;;;;;;4978815;28;20635;-85
2023/07/11 03:34:02;;;;;;;4.70;2.55;;;15.60;99.90;;;;;;4993812;28;20176;-85
2023/07/11 03:36:28;;;;;;;8.23;2.70;;;15.60;99.90;;;;;;4993823;28;20637;-86
2023/07/11 03:38:54;;;;;;;10.45;2.83;;;15.60;99.90;;;;;;4994187;28;20180;-85
2023/07/11 03:41:20;;;;;;;3.85;2.25;;;15.60;99.90;;;;;;4978760;28;20177;-84
2023/07/11 03:43:45;;;;;;;6.00;2.40;;;15.60;99.90;;;;;;4993524;28;20179;-85
2023/07/11 03:46:11;;;;;;;8.32;2.17;;;15.60;99.90;;;;;;4978419;28;20204;-85
2023/07/11 03:48:37;;;;;;;10.18;2.90;;;15.60;99.90;;;;;;4993639;28;20315;-88
2023/07/11 03:51:02;;;;;;;6.35;2.20;;;15.60;99.90;;;;;;4978511;28;20235;-87
2023/07/11 03:53:28;;;;;;;8.75;2.75;;;15.60;99.90;;;;;;4993337;28;20259;-88
2023/07/11 03:55:55;;;;;;;6.47;2.30;;;15.60;99.90;;;;;;4993614;28;20561;-88
2023/07/11 03:58:21;;;;;;;18.08;3.00;;;15.60;99.90;;;;;;4993233;28;20180;-88
2023/07/11 04:00:47;;;;;;;7.50;2.50;;;15.70;99.90;;;;;;4993267;28;20513;-88
2023/07/11 04:03:13;;;;;;;8.65;2.22;;;15.70;99.90;;;;;;4993166;28;20216;-87
2023/07/11 04:05:41;;;;;;;7.13;2.25;;;15.70;99.90;;;;;;4978329;28;20281;-88
2023/07/11 04:08:08;;;;;;;7.30;2.30;;;15.80;99.90;;;;;;4993201;28;20616;-88
2023/07/11 04:10:34;;;;;;;6.55;2.10;;;15.70;99.90;;;;;;4992933;28;20188;-88
2023/07/11 04:13:00;;;;;;;7.20;2.05;;;15.70;99.90;;;;;;4977761;28;20251;-87
2023/07/11 04:15:26;;;;;;;3.78;2.42;;;15.80;99.90;;;;;;4993100;28;20685;-88
2023/07/11 04:17:52;;;;;;;6.07;2.30;;;15.80;99.90;;;;;;4993274;28;20305;-85
2023/07/11 04:20:17;;;;;;;11.82;2.88;;;15.90;99.90;;;;;;4993023;28;20177;-85
2023/07/11 04:22:43;;;;;;;8.32;2.15;;;15.90;99.90;;;;;;4977917;28;20187;-86
2023/07/11 04:25:09;;;;;;;11.27;2.50;;;16.00;99.90;;;;;;4992764;28;20208;-86
2023/07/11 04:27:35;;;;;;;9.02;3.03;;;16.00;99.90;;;;;;4976370;28;20552;-86
2023/07/11 04:30:01;;;;;;;7.50;2.28;;;16.10;99.90;;;;;;4976718;28;20181;-84
2023/07/11 04:32:28;;;;;;;9.00;2.55;;;16.10;99.90;;;;;;4982755;28;20210;-86
2023/07/11 04:34:54;;;;;;;6.35;2.17;;;16.20;99.90;;;;;;4978688;28;20606;-86
2023/07/11 04:37:20;;;;;;;7.40;2.13;;;16.30;99.90;;;;;;4976500;28;20177;-84
2023/07/11 04:39:45;;;;;;;6.05;2.20;;;16.30;99.90;;;;;;4976212;28;20169;-86
2023/07/11 04:42:11;;;;;;;9.07;2.65;;;16.40;99.90;;;;;;4967830;28;20268;-86
2023/07/11 04:44:37;;;;;;;5.72;2.03;;;16.50;99.90;;;;;;4956950;29;20217;-86
2023/07/11 04:47:03;;;;;;;9.57;2.20;;;16.60;99.90;;;;;;4987373;28;20279;-86
2023/07/11 04:49:29;;;;;;;11.32;2.15;;;16.70;99.90;;;;;;4958243;29;20294;-86
2023/07/11 04:51:55;;;;;;;6.80;2.22;;;17.00;99.90;;;;;;4956332;29;20189;-87
2023/07/11 04:54:21;;;;;;;5.32;2.03;;;17.10;99.90;;;;;;4940824;29;20203;-86
2023/07/11 04:56:58;;;;;;;8.88;1.98;;;17.30;99.90;;;;;;4956831;29;20324;-87
2023/07/11 04:59:24;;;;;;;6.60;1.80;;;17.40;99.90;;;;;;4957075;29;20204;-86
2023/07/11 05:01:50;;;;;;;8.05;1.90;;;17.60;99.90;;;;;;4956259;29;20192;-85
2023/07/11 05:04:16;;;;;;;5.13;1.90;;;17.80;99.90;;;;;;4957523;29;20549;-86
2023/07/11 05:06:44;;;;;;;7.80;1.90;;;17.80;99.90;;;;;;4957714;29;20184;-85
2023/07/11 05:09:09;;;;;;;6.65;1.90;;;17.90;99.90;;;;;;4940402;29;20181;-87
2023/07/11 05:11:36;;;;;;;4.80;1.80;;;17.90;99.90;;;;;;4956147;29;20328;-86
2023/07/11 05:14:03;;;;;;;5.43;2.00;;;18.00;99.90;;;;;;4956026;29;20181;-86
2023/07/11 05:16:31;;;;;;;7.18;1.75;;;18.10;99.90;;;;;;4979212;28;20203;-87
2023/07/11 05:18:58;;;;;;;6.97;2.10;;;18.10;99.90;;;;;;4976947;28;20176;-87
2023/07/11 05:21:24;;;;;;;4.57;2.08;;;18.10;99.90;;;;;;4991705;28;20201;-87
2023/07/11 05:23:50;;;;;;;4.00;1.88;;;18.10;99.90;;;;;;4991441;28;20180;-86
2023/07/11 05:26:17;;;;;;;7.45;1.90;;;18.10;99.90;;;;;;4991661;28;20239;-86
2023/07/11 05:28:44;;;;;;;3.95;1.85;;;18.20;99.90;;;;;;4991666;28;20180;-86
2023/07/11 05:31:10;;;;;;;4.38;1.83;;;18.40;99.90;;;;;;4991652;28;20568;-86
2023/07/11 05:33:37;;;;;;;5.75;2.00;;;18.50;99.90;;;;;;4991815;28;20181;-87
2023/07/11 05:36:20;;;;;;;9.32;2.25;;;18.50;99.90;;;;;;4991533;28;20184;-86
2023/07/11 05:38:47;;;;;;;4.55;1.77;;;18.60;99.90;;;;;;4991665;28;20180;-85
2023/07/11 05:41:13;;;;;;;5.25;1.40;;;18.70;99.90;;;;;;4975520;28;20360;-85
2023/07/11 05:43:39;;;;;;;7.65;2.00;;;18.80;99.90;;;;;;4990897;28;20224;-85
2023/07/11 05:46:04;;;;;;;3.53;1.60;;;18.90;99.90;;;;;;4976587;28;20236;-88
2023/07/11 05:48:31;;;;;;;8.02;1.92;;;18.90;99.90;;;;;;4991311;28;20177;-87
2023/07/11 05:51:06;;;;;;;5.47;1.80;;;19.00;99.90;;;;;;4991334;28;20530;-87
2023/07/11 05:53:33;;;;;;;2.83;1.60;;;19.10;99.90;;;;;;4991220;28;20184;-88
2023/07/11 05:55:59;;;;;;;4.50;1.63;;;19.10;99.90;;;;;;4991396;28;20662;-86
2023/07/11 05:58:30;;;;;;;5.30;1.60;;;19.20;99.90;;;;;;4991464;28;20525;-87
2023/07/11 06:00:56;;;;;;;6.63;1.80;;;19.20;99.90;;;;;;4991366;28;20181;-91
2023/07/11 06:03:24;;;;;;;3.50;1.67;;;19.30;99.90;;;;;;4987803;28;20197;-87
2023/07/11 06:05:50;;;;;;;4.20;2.10;;;19.40;99.90;;;;;;4956989;29;20205;-87
2023/07/11 06:08:17;;;;;;;3.80;1.75;;;19.50;99.90;;;;;;4972007;28;20177;-88
2023/07/11 06:10:43;;;;;;;4.78;1.52;;;19.60;99.90;;;;;;4955823;29;20933;-90
2023/07/11 06:13:14;;;;;;;4.43;1.80;;;19.70;99.90;;;;;;4969734;28;20287;-86
2023/07/11 06:15:40;;;;;;;4.00;1.77;;;19.80;99.90;;;;;;4975246;28;20187;-89
2023/07/11 06:18:07;;;;;;;6.03;2.22;;;19.80;99.90;;;;;;4976403;28;20374;-90
2023/07/11 06:20:33;;;;;;;5.03;1.50;;;19.90;99.90;;;;;;4975108;28;20177;-89
2023/07/11 06:23:00;;;;;;;5.18;1.70;;;20.00;99.90;;;;;;4976028;28;20177;-90
2023/07/11 06:25:25;;;;;;;4.57;1.65;;;20.10;99.90;;;;;;4959609;28;20220;-90
2023/07/11 06:27:54;;;;;;;3.65;1.75;;;20.20;99.90;;;;;;4977034;28;20497;-89
2023/07/11 06:30:20;;;;;;;6.07;1.90;;;20.30;99.90;;;;;;4959859;28;20214;-89
2023/07/11 06:32:46;;;;;;;4.50;1.83;;;20.40;99.90;;;;;;4975591;28;20552;-87
2023/07/11 06:35:11;;;;;;;3.88;2.03;;;20.50;99.90;;;;;;4976152;28;20203;-89
2023/07/11 06:37:37;;;;;;;5.90;1.80;;;20.50;99.90;;;;;;4959048;28;20176;-90
2023/07/11 06:40:08;;;;;;;5.55;1.92;;;20.60;99.90;;;;;;4975175;28;20279;-88
2023/07/11 06:42:35;;;;;;;6.72;1.80;;;20.80;99.90;;;;;;4975051;28;20184;-89
2023/07/11 06:45:00;;;;;;;8.15;2.13;;;20.90;99.90;;;;;;4976674;28;20243;-89
2023/07/11 06:47:27;;;;;;;3.65;1.67;;;21.00;99.90;;;;;;4991318;28;20211;-91
2023/07/11 06:49:53;;;;;;;6.22;2.30;;;21.10;99.90;;;;;;4991469;28;20173;-91
2023/07/11 06:52:18;;;;;;;2.47;1.58;;;21.20;99.90;;;;;;4991918;28;20247;-89
2023/07/11 06:54:44;;;;;;;5.38;1.63;;;21.30;99.90;;;;;;4991364;28;20619;-91
2023/07/11 06:57:10;;;;;;;4.40;2.08;;;21.40;99.90;;;;;;4991998;28;20177;-89
2023/07/11 06:59:35;;;;;;;3.22;1.60;;;21.60;99.90;;;;;;4991433;28;20235;-87
2023/07/11 07:02:03;;;;;;;3.67;1.63;;;21.70;99.90;;;;;;4975894;28;20176;-90
2023/07/11 07:04:29;;;;;;;4.13;1.80;;;21.90;99.90;;;;;;4990410;28;20559;-89
2023/07/11 07:07:01;;;;;;;3.28;1.90;;;22.00;99.90;;;;;;4991111;28;20188;-91
2023/07/11 07:09:27;;;;;;;4.90;1.83;;;22.20;99.90;;;;;;4991588;28;20176;-90
2023/07/11 07:11:53;;;;;;;2.90;1.70;;;22.40;99.90;;;;;;4991413;28;20244;-89
2023/07/11 07:14:19;;;;;;;3.63;1.75;;;22.60;99.90;;;;;;4992102;28;20623;-92
2023/07/11 07:16:45;;;;;;;3.78;1.85;;;22.70;99.90;;;;;;4991518;28;20181;-94
2023/07/11 07:19:11;;;;;;;3.13;1.63;;;22.90;99.90;;;;;;4974549;28;20251;-90
2023/07/11 07:21:37;;;;;;;7.07;2.10;;;23.10;99.90;;;;;;4990375;28;20231;-92
2023/07/11 07:24:03;;;;;;;5.68;2.03;;;23.20;99.90;;;;;;4990237;28;20188;-88
2023/07/11 07:26:29;;;;;;;6.25;1.65;;;23.40;99.90;;;;;;4990496;28;20275;-87
2023/07/11 07:28:57;;;;;;;6.25;1.77;;;23.50;99.90;;;;;;4975269;28;20620;-89
2023/07/11 07:31:23;;;;;;;4.72;1.83;;;23.60;99.90;;;;;;4990504;28;20180;-90
2023/07/11 07:33:49;;;;;;;9.32;1.70;;;23.60;99.90;;;;;;4990635;28;20188;-90
2023/07/11 07:36:15;;;;;;;3.08;1.70;;;23.60;99.90;;;;;;4975996;28;20223;-90
2023/07/11 07:38:42;;;;;;;2.90;1.50;;;23.70;99.90;;;;;;4991097;28;20184;-88
2023/07/11 07:41:10;;;;;;;6.97;2.13;;;23.80;99.90;;;;;;4990847;28;20176;-89
2023/07/11 07:43:39;;;;;;;2.67;1.80;;;24.00;99.90;;;;;;4990094;28;20232;-89
2023/07/11 07:46:05;;;;;;;3.85;1.90;;;24.00;99.90;;;;;;4990672;28;20594;-88
2023/07/11 07:48:32;;;;;;;3.35;1.85;;;24.20;99.90;;;;;;4990964;28;20173;-88
2023/07/11 07:51:06;;;;;;;5.30;2.40;;;24.30;99.90;;;;;;4991077;28;20177;-91
2023/07/11 07:53:33;;;;;;;3.13;1.58;;;24.50;99.90;;;;;;4990537;28;20172;-90
2023/07/11 07:56:05;;;;;;;2.45;1.58;;;24.70;99.90;;;;;;4990655;28;20211;-88
2023/07/11 07:58:31;;;;;;;5.82;2.08;;;24.90;99.90;;;;;;4989716;28;20279;-87
2023/07/11 08:00:57;;;;;;;3.03;1.60;;;25.00;99.90;;;;;;4990476;28;20494;-87
2023/07/11 08:03:23;;;;;;;4.22;1.98;;;25.00;99.90;;;;;;4990333;28;20264;-89
2023/07/11 08:05:48;;;;;;;2.28;1.60;;;25.10;99.90;;;;;;4975298;28;20239;-88
2023/07/11 08:08:24;;;;;;;5.95;1.70;;;25.20;99.90;;;;;;4975274;28;20176;-88
2023/07/11 08:10:50;;;;;;;6.05;1.77;;;25.30;99.80;;;;;;4990072;28;20191;-91
2023/07/11 08:13:16;;;;;;;4.05;1.95;;;25.20;99.90;;;;;;4989894;28;20279;-90
2023/07/11 08:15:42;;;;;;;4.78;1.42;;;25.30;99.90;;;;;;4993662;28;20181;-89
2023/07/11 08:18:13;;;;;;;5.30;1.52;;;25.40;99.90;;;;;;4993750;28;20192;-89
2023/07/11 08:20:40;;;;;;;3.03;1.55;;;25.50;99.90;;;;;;4993905;28;20185;-92
2023/07/11 08:23:05;;;;;;;3.30;1.58;;;25.60;99.60;;;;;;4993324;28;20264;-91
2023/07/11 08:25:32;;;;;;;6.28;1.75;;;25.70;99.70;;;;;;4993535;28;20220;-93
2023/07/11 08:27:58;;;;;;;4.40;1.55;;;25.80;99.20;;;;;;4993500;28;20185;-88
2023/07/11 08:30:24;;;;;;;3.78;1.70;;;25.80;99.40;;;;;;4978504;28;20183;-89
2023/07/11 08:32:49;;;;;;;3.00;1.85;;;25.90;99.80;;;;;;4993355;28;20177;-88
2023/07/11 08:35:15;;;;;;;4.28;1.63;;;25.90;99.00;;;;;;4993134;28;20181;-90
2023/07/11 08:37:41;;;;;;;7.15;1.75;;;26.00;98.70;;;;;;4977534;28;20208;-90
2023/07/11 08:40:15;;;;;;;2.72;1.50;;;26.00;98.40;;;;;;4993294;28;20177;-92
2023/07/11 08:42:43;;;;;;;3.03;1.40;;;26.00;98.10;;;;;;4991711;28;20619;-91
2023/07/11 08:45:15;;;;;;;5.45;1.73;;;26.00;98.20;;;;;;4993510;28;20216;-88
2023/07/11 08:47:47;;;;;;;2.70;1.52;;;26.10;97.80;;;;;;4993426;28;20215;-86
2023/07/11 08:50:17;;;;;;;3.47;1.80;;;26.10;97.50;;;;;;4993287;28;20685;-90
2023/07/11 08:52:47;;;;;;;3.33;1.70;;;26.20;98.50;;;;;;4993358;28;20306;-89
2023/07/11 08:55:25;;;;;;;5.13;2.20;;;26.30;98.10;;;;;;4993042;28;20634;-89
2023/07/11 08:58:18;;;;;;;6.40;2.25;;;26.40;97.30;;;;;;4993145;28;20184;-90
2023/07/11 09:00:47;;;;;;;2.70;1.80;;;26.40;96.90;;;;;;4993121;28;20196;-90
2023/07/11 09:03:41;;;;;;;3.08;1.77;;;26.40;97.70;;;;;;4992900;28;20188;-88
2023/07/11 09:06:12;;;;;;;2.33;1.63;;;26.40;97.50;;;;;;4985528;28;20220;-89
2023/07/11 09:08:54;;;;;;;3.88;1.50;;;26.40;97.80;;;;;;4993005;28;20264;-90
2023/07/11 09:11:41;;;;;;;3.47;1.70;;;26.50;97.90;;;;;;4973014;28;20220;-85
2023/07/11 09:14:24;;;;;;;3.92;1.90;;;26.60;97.70;;;;;;4956977;29;20212;-87
2023/07/11 09:17:04;;;;;;;3.00;1.40;;;26.80;96.40;;;;;;4973409;28;20173;-91
2023/07/11 09:19:45;;;;;;;4.38;1.70;;;26.80;96.60;;;;;;4957680;29;20204;-88
2023/07/11 09:22:13;;;;;;;3.85;1.75;;;26.90;96.10;;;;;;4958098;29;20256;-89
2023/07/11 09:24:45;;;;;;;5.35;1.55;;;26.90;96.00;;;;;;4969313;28;20205;-91
2023/07/11 09:27:23;;;;;;;3.92;2.00;;;27.00;96.30;;;;;;4977073;28;20180;-89
2023/07/11 09:29:50;;;;;;;4.32;1.88;;;27.10;95.40;;;;;;4992934;28;20227;-89
2023/07/11 09:32:16;;;;;;;3.45;2.08;;;27.10;95.30;;;;;;4977813;28;20169;-89
2023/07/11 09:34:50;;;;;;;3.00;1.70;;;27.20;96.30;;;;;;4992849;28;20239;-88
2023/07/11 09:37:42;;;;;;;3.65;1.60;;;27.20;96.70;;;;;;4977968;28;20168;-88
2023/07/11 09:40:31;;;;;;;2.03;1.50;;;27.20;94.60;;;;;;4993124;28;20183;-89
2023/07/11 09:42:57;;;;;;;3.60;1.60;;;27.30;94.80;;;;;;4992062;28;20177;-92
2023/07/11 09:45:31;;;;;;;6.10;1.80;;;27.40;95.10;;;;;;4992443;28;20275;-90
2023/07/11 09:48:19;;;;;;;4.07;1.90;;;27.50;93.90;;;;;;4993394;28;20181;-89
2023/07/11 09:51:05;;;;;;;4.18;1.80;;;27.60;95.20;;;;;;4992493;28;20179;-88
2023/07/11 09:53:33;;;;;;;3.20;1.73;;;27.60;93.90;;;;;;4977208;28;20227;-93
2023/07/11 09:56:02;;;;;;;7.28;2.30;;;27.60;94.90;;;;;;4993256;28;20223;-88
2023/07/11 09:58:33;;;;;;;2.78;1.65;;;27.70;95.50;;;;;;4993053;28;20184;-86
2023/07/11 10:01:01;;;;;;;3.28;1.80;;;27.70;95.20;;;;;;4992708;28;20192;-89
2023/07/11 10:03:30;;;;;;;2.42;1.80;;;27.70;94.70;;;;;;4992129;28;20180;-90
2023/07/11 10:05:57;;;;;;;5.18;1.67;;;27.80;94.70;;;;;;4991610;28;20214;-89
2023/07/11 10:08:36;;;;;;;3.35;1.92;;;27.80;93.20;;;;;;4992842;28;20180;-86
2023/07/11 10:11:06;;;;;;;5.35;1.98;;;27.90;93.70;;;;;;4976426;28;20180;-90
2023/07/11 10:13:32;;;;;;;3.00;1.55;;;27.90;94.10;;;;;;4993262;28;20263;-89
2023/07/11 10:16:00;;;;;;;5.43;2.40;;;28.00;95.20;;;;;;4976976;28;20203;-91
2023/07/11 10:18:30;;;;;;;3.40;1.88;;;28.10;94.30;;;;;;4992214;28;20176;-88
2023/07/11 10:21:10;;;;;;;3.03;1.90;;;28.20;94.40;;;;;;4992490;28;20173;-90
2023/07/11 10:23:37;;;;;;;4.07;2.03;;;28.20;94.30;;;;;;4991364;28;20195;-87
2023/07/11 10:26:25;;;;;;;3.88;2.00;;;28.30;94.40;;;;;;4976267;28;20222;-89
2023/07/11 10:29:03;;;;;;;5.75;2.30;;;28.40;94.20;;;;;;4977170;28;20179;-92
2023/07/11 10:31:37;;;;;;;4.30;2.40;;;28.30;94.60;;;;;;4976461;28;20176;-93
2023/07/11 10:34:19;;;;;;;3.40;1.92;;;28.40;94.10;;;;;;4975510;28;20186;-90
2023/07/11 10:36:51;;;;;;;3.90;2.20;;;28.40;94.40;;;;;;4975516;28;20187;-93
2023/07/11 10:39:40;;;;;;;6.03;2.05;;;28.40;93.90;;;;;;4975319;28;20315;-88
2023/07/11 10:42:28;;;;;;;6.65;2.78;;;28.30;94.80;;;;;;4971632;28;20195;-89
2023/07/11 10:45:07;;;;;;;3.63;2.45;;;28.30;96.10;;;;;;4992781;28;20574;-87
2023/07/11 10:47:37;;;;;;;2.90;1.92;;;28.30;96.10;;;;;;4975406;28;20607;-88
2023/07/11 10:50:09;;;;;;;5.55;2.25;;;28.40;94.30;;;;;;4975763;28;20269;-88
2023/07/11 10:52:38;;;;;;;6.78;2.20;;;28.20;94.50;;;;;;4975427;28;20224;-88
2023/07/11 10:55:38;;;;;;;3.90;2.10;;;28.10;95.90;;;;;;4960544;28;20219;-89
2023/07/11 10:58:05;;;;;;;3.15;2.10;;;27.90;95.60;;;;;;4932416;29;20204;-89
2023/07/11 11:00:40;;;;;;;5.00;2.08;;;28.10;97.00;;;;;;4940267;29;20224;-91
2023/07/11 11:03:44;;;;;;;4.30;2.25;;;28.30;93.80;;;;;;4955720;29;20176;-88
2023/07/11 11:06:17;;;;;;;2.58;2.13;;;28.20;93.30;;;;;;4955264;29;20250;-86
2023/07/11 11:08:58;;;;;;;5.38;2.28;;;28.10;95.90;;;;;;4956856;29;20176;-89
2023/07/11 11:11:38;;;;;;;3.22;2.05;;;28.30;95.20;;;;;;4944468;28;20223;-89
2023/07/11 11:14:21;;;;;;;3.95;2.20;;;28.60;96.30;;;;;;4959043;28;20234;-91
2023/07/11 11:17:08;;;;;;;3.10;2.35;;;28.90;93.90;;;;;;4959361;28;20168;-90
2023/07/11 11:20:12;;;;;;;2.97;2.20;;;28.80;92.60;;;;;;4958825;28;20172;-89
2023/07/11 11:23:09;;;;;;;3.95;2.45;;;28.90;93.20;;;;;;4958290;28;20582;-90
2023/07/11 11:26:03;;;;;;;3.03;2.20;;;29.10;93.70;;;;;;4994028;28;20210;-87
2023/07/11 11:28:39;;;;;;;3.53;2.13;;;29.30;92.50;;;;;;4994720;28;20207;-88
2023/07/11 11:31:25;;;;;;;5.18;2.33;;;29.30;93.20;;;;;;4994491;28;20194;-92
2023/07/11 11:34:32;;;;;;;3.38;2.28;;;29.20;93.30;;;;;;4994428;28;20327;-91
2023/07/11 11:37:17;;;;;;;4.30;2.58;;;29.20;93.80;;;;;;4972271;28;20222;-91
2023/07/11 11:40:04;;;;;;;4.32;2.60;;;29.30;93.30;;;;;;4993941;28;20266;-92
2023/07/11 11:42:33;;;;;;;4.05;2.40;;;29.40;91.10;;;;;;4993062;28;20200;-89
2023/07/11 11:45:06;;;;;;;3.58;2.70;;;29.40;92.50;;;;;;4993673;28;20244;-91
2023/07/11 11:47:34;;;;;;;3.55;2.60;;;29.50;91.70;;;;;;4978145;28;20828;-91
2023/07/11 11:50:29;;;;;;;3.80;2.75;;;29.50;92.60;;;;;;4997764;28;20207;-91
2023/07/11 11:53:14;;;;;;;5.57;2.35;;;29.50;91.10;;;;;;4995107;28;20645;-88
2023/07/11 11:55:40;;;;;;;3.83;2.65;;;29.50;91.80;;;;;;4998400;28;20183;-88
2023/07/11 11:58:13;;;;;;;4.40;2.63;;;29.60;92.20;;;;;;4997274;28;20183;-89
2023/07/11 12:00:50;;;;;;;4.40;3.00;;;29.70;91.20;;;;;;4997356;28;20175;-89
2023/07/11 12:03:24;;;;;;;8.10;3.20;;;29.90;90.40;;;;;;4997457;28;20179;-87
2023/07/11 12:05:52;;;;;;;4.95;2.83;;;30.10;90.10;;;;;;4997820;28;20222;-86
2023/07/11 12:08:25;;;;;;;5.35;2.97;;;30.10;90.00;;;;;;4997227;28;20518;-90
2023/07/11 12:11:07;;;;;;;3.60;2.88;;;30.10;92.30;;;;;;4996904;28;20567;-87
2023/07/11 12:13:37;;;;;;;4.18;3.17;;;30.00;90.00;;;;;;4997820;28;20705;-90
2023/07/11 12:16:24;;;;;;;6.25;3.40;;;30.10;90.70;;;;;;5002512;28;20191;-90
2023/07/11 12:18:57;;;;;;;5.47;3.28;;;30.30;90.90;;;;;;4999277;28;20198;-90
2023/07/11 12:21:42;;;;;;;4.38;3.00;;;30.30;90.00;;;;;;4996354;28;20187;-88
2023/07/11 12:24:22;;;;;;;3.90;2.97;;;30.40;90.30;;;;;;4996364;28;20178;-94
2023/07/11 12:26:47;;;;;;;3.80;2.88;;;30.30;89.60;;;;;;4997010;28;20198;-92
2023/07/11 12:29:38;;;;;;;4.45;2.90;;;30.30;90.80;;;;;;4979961;28;20179;-89
2023/07/11 12:32:32;;;;;;;5.22;3.30;;;30.20;91.80;;;;;;4990704;28;20314;-92
2023/07/11 12:35:04;;;;;;;5.35;3.75;;;30.00;90.60;;;;;;4996566;28;20244;-88
2023/07/11 12:37:42;;;;;;;6.13;3.58;;;29.70;91.10;;;;;;4996499;28;20180;-88
2023/07/11 12:40:09;;;;;;;4.43;3.67;;;29.60;92.90;;;;;;4996307;28;20203;-88
2023/07/11 12:42:51;;;;;;;4.38;3.25;;;29.70;91.60;;;;;;4996281;28;20198;-87
2023/07/11 12:45:23;;;;;;;5.53;4.00;;;29.80;91.20;;;;;;4996206;28;20207;-87
2023/07/11 12:48:38;;;;;;;4.55;3.60;;;29.70;91.10;;;;;;4996547;28;20194;-87
2023/07/11 12:51:21;;;;;;;3.85;3.38;;;29.80;89.00;;;;;;4976068;28;20191;-87
2023/07/11 12:53:51;;;;;;;7.20;3.60;;;29.90;91.30;;;;;;4996299;28;20171;-88
2023/07/11 12:56:16;;;;;;;7.30;4.07;;;29.80;90.00;;;;;;4996105;28;20274;-88
2023/07/11 12:58:42;;;;;;;8.38;3.80;;;29.70;90.30;;;;;;4996266;28;20295;-90
2023/07/11 13:01:15;;;;;;;4.05;3.50;;;29.70;90.80;;;;;;4995134;28;20186;-90